createdAt,value
2022-08-12T00:02:45.237Z,99348.59
2022-08-12T00:05:32.024Z,99341.91
2022-08-12T00:08:17.391Z,99339.25
2022-08-12T00:11:16.417Z,99346.91
2022-08-12T00:14:02.221Z,99345.72
2022-08-12T00:16:50.131Z,99336.91
2022-08-12T00:19:35.649Z,99346.06
2022-08-12T00:22:20.764Z,99346.72
2022-08-12T00:25:06.783Z,99337.19
2022-08-12T00:27:52.356Z,99329.72
2022-08-12T00:30:37.761Z,99335.19
2022-08-12T00:33:23.067Z,99337.53
2022-08-12T00:36:18.692Z,99341.50
2022-08-12T00:39:21.906Z,99334.16
2022-08-12T00:42:08.814Z,99335.97
2022-08-12T00:44:35.326Z,99345.16
2022-08-12T00:47:04.192Z,99334.81
2022-08-12T00:49:31.571Z,99340.75
2022-08-12T00:52:10.275Z,99342.44
2022-08-12T00:54:39.010Z,99342.59
2022-08-12T00:57:09.895Z,99345.44
2022-08-12T00:59:43.406Z,99339.44
2022-08-12T01:02:13.678Z,99333.22
2022-08-12T01:05:01.740Z,99339.34
2022-08-12T01:07:47.794Z,99338.81
2022-08-12T01:10:33.966Z,99321.84
2022-08-12T01:13:18.273Z,99329.63
2022-08-12T01:15:47.717Z,99324.97
2022-08-12T01:18:16.373Z,99324.03
2022-08-12T01:20:53.440Z,99315.19
2022-08-12T01:23:34.368Z,99312.41
2022-08-12T01:26:04.268Z,99323.53
2022-08-12T01:28:33.463Z,99319.53
2022-08-12T01:31:05.127Z,99316.84
2022-08-12T01:33:43.464Z,99319.50
2022-08-12T01:36:12.952Z,99319.34
2022-08-12T01:38:42.728Z,99317.50
2022-08-12T01:41:11.668Z,99322.66
2022-08-12T01:43:39.550Z,99312.31
2022-08-12T01:46:20.126Z,99328.16
2022-08-12T01:49:23.518Z,99326.16
2022-08-12T01:52:15.508Z,99320.44
2022-08-12T01:54:45.851Z,99304.72
2022-08-12T01:57:58.264Z,99306.25
2022-08-12T02:00:20.318Z,99299.28
2022-08-12T02:03:30.826Z,99288.97
2022-08-12T02:06:36.262Z,99304.13
2022-08-12T02:09:23.255Z,99308.03
2022-08-12T02:12:06.301Z,99279.22
2022-08-12T02:14:57.399Z,99274.47
2022-08-12T02:17:55.029Z,99275.16
2022-08-12T02:20:52.254Z,99272.16
2022-08-12T02:23:20.685Z,99272.22
2022-08-12T02:25:47.716Z,99261.22
2022-08-12T02:28:14.457Z,99258.56
2022-08-12T02:30:42.758Z,99274.94
2022-08-12T02:33:11.351Z,99272.94
2022-08-12T02:35:39.760Z,99267.69
2022-08-12T02:38:10.285Z,99268.69
2022-08-12T02:40:39.838Z,99262.97
2022-08-12T02:43:27.674Z,99264.84
2022-08-12T02:46:01.412Z,99260.38
2022-08-12T02:48:34.256Z,99253.78
2022-08-12T02:51:05.244Z,99257.28
2022-08-12T02:53:34.311Z,99257.22
2022-08-12T02:56:05.316Z,99237.38
2022-08-12T02:58:33.701Z,99244.03
2022-08-12T03:01:04.791Z,99239.88
2022-08-12T03:03:34.017Z,99232.50
2022-08-12T03:06:22.009Z,99224.69
2022-08-12T03:08:52.581Z,99227.59
2022-08-12T03:11:29.306Z,99226.91
2022-08-12T03:14:00.683Z,99220.16
2022-08-12T03:16:33.141Z,99212.41
2022-08-12T03:19:00.531Z,99211.88
2022-08-12T03:21:55.397Z,99206.47
2022-08-12T03:24:18.525Z,99197.91
2022-08-12T03:26:47.293Z,99197.47
2022-08-12T03:29:16.434Z,99190.81
2022-08-12T03:31:45.466Z,99174.41
2022-08-12T03:34:12.756Z,99180.22
2022-08-12T03:36:41.807Z,99189.34
2022-08-12T03:39:17.896Z,99178.22
2022-08-12T03:42:01.623Z,99175.28
2022-08-12T03:44:53.547Z,99180.03
2022-08-12T03:48:02.293Z,99184.31
2022-08-12T03:50:48.894Z,99186.50
2022-08-12T03:53:40.637Z,99180.28
2022-08-12T03:56:25.875Z,99195.66
2022-08-12T03:59:13.225Z,99202.63
2022-08-12T04:01:41.266Z,99201.34
2022-08-12T04:04:10.827Z,99211.81
2022-08-12T04:06:44.885Z,99206.31
2022-08-12T04:09:15.545Z,99206.28
2022-08-12T04:12:04.193Z,99209.91
2022-08-12T04:14:32.659Z,99200.47
2022-08-12T04:17:00.108Z,99208.84
2022-08-12T04:19:27.193Z,99206.59
2022-08-12T04:22:02.071Z,99205.81
2022-08-12T04:24:36.758Z,99201.19
2022-08-12T04:27:10.204Z,99190.28
2022-08-12T04:30:29.374Z,99194.09
2022-08-12T04:32:26.166Z,99199.94
2022-08-12T04:34:53.223Z,99202.44
2022-08-12T04:37:19.699Z,99204.03
2022-08-12T04:39:47.330Z,99205.47
2022-08-12T04:42:14.111Z,99203.19
2022-08-12T04:44:42.133Z,99200.03
2022-08-12T04:47:12.594Z,99195.16
2022-08-12T04:49:40.763Z,99186.31
2022-08-12T04:52:07.340Z,99192.63
2022-08-12T04:54:34.484Z,99195.78
2022-08-12T04:57:04.139Z,99182.22
2022-08-12T04:59:48.422Z,99179.84
2022-08-12T05:02:21.500Z,99199.03
2022-08-12T05:04:53.291Z,99199.00
2022-08-12T05:07:20.694Z,99212.66
2022-08-12T05:10:00.265Z,99218.44
2022-08-12T05:12:34.922Z,99220.09
2022-08-12T05:15:02.068Z,99229.50
2022-08-12T05:17:28.727Z,99239.59
2022-08-12T05:19:57.124Z,99245.34
2022-08-12T05:22:26.079Z,99249.06
2022-08-12T05:24:52.822Z,99260.44
2022-08-12T05:27:19.369Z,99255.03
2022-08-12T05:30:06.205Z,99265.56
2022-08-12T05:32:35.439Z,99283.38
2022-08-12T05:35:06.877Z,99292.13
2022-08-12T05:37:34.988Z,99295.84
2022-08-12T05:40:08.372Z,99298.56
2022-08-12T05:42:37.761Z,99283.63
2022-08-12T05:45:04.917Z,99303.66
2022-08-12T05:47:44.883Z,99321.97
2022-08-12T05:50:17.962Z,99310.94
2022-08-12T05:52:44.367Z,99312.03
2022-08-12T05:55:11.705Z,99326.78
2022-08-12T05:57:38.969Z,99345.72
2022-08-12T06:00:06.771Z,99359.78
2022-08-12T06:02:35.314Z,99365.09
2022-08-12T06:05:02.624Z,99380.53
2022-08-12T06:07:42.800Z,99406.72
2022-08-12T06:10:31.696Z,99419.25
2022-08-12T06:13:03.504Z,99433.69
2022-08-12T06:15:31.492Z,99445.97
2022-08-12T06:18:16.215Z,99437.47
2022-08-12T06:20:43.531Z,99446.53
2022-08-12T06:23:11.764Z,99451.31
2022-08-12T06:25:38.534Z,99447.03
2022-08-12T06:28:15.778Z,99455.16
2022-08-12T06:30:42.352Z,99456.72
2022-08-12T06:33:22.244Z,99456.69
2022-08-12T06:35:50.710Z,99465.38
2022-08-12T06:38:25.758Z,99466.25
2022-08-12T06:41:14.346Z,99464.00
2022-08-12T06:44:06.225Z,99470.66
2022-08-12T06:46:30.897Z,99481.19
2022-08-12T06:49:01.669Z,99474.00
2022-08-12T06:51:31.237Z,99465.69
2022-08-12T06:53:59.380Z,99477.94
2022-08-12T06:56:46.023Z,99478.13
2022-08-12T06:59:14.571Z,99456.34
2022-08-12T07:01:41.009Z,99470.59
2022-08-12T07:04:35.799Z,99465.72
2022-08-12T07:07:05.621Z,99464.16
2022-08-12T07:10:05.199Z,99468.53
2022-08-12T07:12:19.930Z,99443.34
2022-08-12T07:14:51.846Z,99452.34
2022-08-12T07:17:18.836Z,99461.09
2022-08-12T07:19:48.552Z,99460.22
2022-08-12T07:22:16.059Z,99463.31
2022-08-12T07:24:42.671Z,99462.41
2022-08-12T07:27:09.678Z,99460.13
2022-08-12T07:30:03.515Z,99463.16
2022-08-12T07:32:25.519Z,99443.56
2022-08-12T07:34:56.160Z,99466.09
2022-08-12T07:37:24.200Z,99461.81
2022-08-12T07:39:59.800Z,99469.50
2022-08-12T07:42:27.987Z,99459.72
2022-08-12T07:44:55.928Z,99456.53
2022-08-12T07:47:23.192Z,99461.66
2022-08-12T07:50:03.294Z,99456.00
2022-08-12T07:52:33.018Z,99447.59
2022-08-12T07:55:00.029Z,99453.63
2022-08-12T07:57:26.447Z,99463.97
2022-08-12T07:59:55.511Z,99457.22
2022-08-12T08:02:35.988Z,99446.53
2022-08-12T08:05:03.865Z,99446.69
2022-08-12T08:07:31.047Z,99445.19
2022-08-12T08:09:59.916Z,99453.72
2022-08-12T08:12:46.845Z,99452.97
2022-08-12T08:15:15.114Z,99443.22
2022-08-12T08:18:04.939Z,99447.69
2022-08-12T08:20:41.066Z,99439.63
2022-08-12T08:23:14.918Z,99444.28
2022-08-12T08:25:41.496Z,99458.38
2022-08-12T08:28:11.651Z,99448.84
2022-08-12T08:30:42.670Z,99444.81
2022-08-12T08:33:22.943Z,99425.31
2022-08-12T08:35:54.438Z,99441.22
2022-08-12T08:38:33.170Z,99445.19
2022-08-12T08:42:16.165Z,99441.44
2022-08-12T08:44:11.243Z,99428.53
2022-08-12T08:46:38.801Z,99433.63
2022-08-12T08:49:06.075Z,99431.66
2022-08-12T08:51:32.819Z,99435.97
2022-08-12T08:53:59.576Z,99438.16
2022-08-12T08:56:27.166Z,99451.25
2022-08-12T08:58:53.622Z,99440.00
2022-08-12T09:01:22.431Z,99440.53
2022-08-12T09:05:07.236Z,99422.97
2022-08-12T09:06:39.543Z,99446.50
2022-08-12T09:09:13.306Z,99451.69
2022-08-12T09:14:51.377Z,99431.25
2022-08-12T09:17:21.279Z,99435.84
2022-08-12T09:19:57.514Z,99445.06
2022-08-12T09:25:25.709Z,99439.50
2022-08-12T09:28:03.713Z,99424.97
2022-08-12T09:30:41.979Z,99417.91
2022-08-12T09:33:18.874Z,99403.47
2022-08-12T09:36:05.021Z,99420.53
2022-08-12T09:38:33.634Z,99418.91
2022-08-12T09:42:33.480Z,99405.81
2022-08-12T09:44:39.332Z,99391.66
2022-08-12T09:47:04.015Z,99414.16
2022-08-12T09:49:42.261Z,99415.56
2022-08-12T09:52:15.582Z,99401.81
2022-08-12T09:54:42.898Z,99409.75
2022-08-12T09:58:45.471Z,99381.97
2022-08-12T10:00:28.134Z,99395.94
2022-08-12T10:03:31.955Z,99384.69
2022-08-12T10:06:26.755Z,99382.03
2022-08-12T10:08:53.745Z,99383.84
2022-08-12T10:12:11.306Z,99386.13
2022-08-12T10:14:34.921Z,99367.84
2022-08-12T10:17:03.469Z,99374.69
2022-08-12T10:19:37.779Z,99354.03
2022-08-12T10:22:16.929Z,99355.41
2022-08-12T10:25:17.436Z,99364.31
2022-08-12T10:28:07.572Z,99371.97
2022-08-12T10:30:46.912Z,99366.38
2022-08-12T10:33:30.797Z,99377.69
2022-08-12T10:36:01.088Z,99375.34
2022-08-12T10:38:33.459Z,99363.06
2022-08-12T10:41:58.830Z,99360.41
2022-08-12T10:44:17.340Z,99347.78
2022-08-12T10:46:49.940Z,99354.50
2022-08-12T10:50:02.220Z,99341.47
2022-08-12T10:52:34.683Z,99342.53
2022-08-12T10:54:56.102Z,99344.19
2022-08-12T10:58:14.974Z,99360.69
2022-08-12T11:00:31.207Z,99343.63
2022-08-12T11:04:23.647Z,99354.78
2022-08-12T11:07:06.727Z,99363.75
2022-08-12T11:08:43.396Z,99322.16
2022-08-12T11:12:35.331Z,99336.31
2022-08-12T11:14:05.524Z,99347.50
2022-08-12T11:16:33.469Z,99354.25
2022-08-12T11:19:03.173Z,99324.97
2022-08-12T11:21:51.217Z,99336.19
2022-08-12T11:24:32.048Z,99321.72
2022-08-12T11:27:08.062Z,99327.91
2022-08-12T11:30:00.467Z,99309.34
2022-08-12T11:32:24.665Z,99304.25
2022-08-12T11:34:54.859Z,99296.94
2022-08-12T11:37:24.800Z,99315.06
2022-08-12T11:42:39.596Z,99304.47
2022-08-12T11:45:16.307Z,99309.16
2022-08-12T11:47:43.678Z,99284.31
2022-08-12T11:50:11.811Z,99288.97
2022-08-12T11:52:56.392Z,99291.63
2022-08-12T11:55:45.352Z,99269.91
2022-08-12T12:00:08.853Z,99287.75
2022-08-12T12:03:50.062Z,99278.50
2022-08-12T12:06:19.097Z,99276.13
2022-08-12T12:08:51.071Z,99281.19
2022-08-12T12:11:19.858Z,99264.00
2022-08-12T12:14:08.149Z,99268.16
2022-08-12T12:16:39.584Z,99271.28
2022-08-12T12:19:06.796Z,99245.34
2022-08-12T12:21:48.636Z,99257.91
2022-08-12T12:24:21.068Z,99253.78
2022-08-12T12:27:00.065Z,99263.31
2022-08-12T12:30:13.602Z,99255.91
2022-08-12T12:32:14.892Z,99246.03
2022-08-12T12:35:13.178Z,99262.56
2022-08-12T12:37:59.069Z,99251.94
2022-08-12T12:40:14.513Z,99242.03
2022-08-12T12:42:55.627Z,99252.03
2022-08-12T12:45:25.932Z,99240.00
2022-08-12T12:48:11.568Z,99220.06
2022-08-12T12:50:45.263Z,99207.22
2022-08-12T12:54:06.919Z,99231.22
2022-08-12T12:56:33.858Z,99233.81
2022-08-12T12:59:05.075Z,99218.28
2022-08-12T13:01:38.405Z,99220.34
2022-08-12T13:04:12.379Z,99233.41
2022-08-12T13:06:42.271Z,99247.75
2022-08-12T13:09:13.400Z,99229.53
2022-08-12T13:11:42.061Z,99214.75
2022-08-12T13:14:28.671Z,99235.69
2022-08-12T13:16:57.768Z,99232.97
2022-08-12T13:19:38.597Z,99228.94
2022-08-12T13:22:19.959Z,99232.66
2022-08-12T13:24:52.090Z,99240.94
2022-08-12T13:27:34.941Z,99223.91
2022-08-12T13:30:12.686Z,99231.91
2022-08-12T13:32:40.934Z,99222.25
2022-08-12T13:35:19.757Z,99195.97
2022-08-12T13:37:57.159Z,99216.00
2022-08-12T13:40:26.565Z,99222.41
2022-08-12T13:42:55.891Z,99239.53
2022-08-12T13:45:22.778Z,99227.94
2022-08-12T13:47:55.993Z,99213.41
2022-08-12T13:50:36.242Z,99203.28
2022-08-12T13:53:24.005Z,99211.47
2022-08-12T13:56:01.980Z,99220.63
2022-08-12T13:58:30.159Z,99203.31
2022-08-12T14:00:58.028Z,99214.66
2022-08-12T14:03:28.701Z,99208.72
2022-08-12T14:06:15.202Z,99211.72
2022-08-12T14:08:43.260Z,99202.03
2022-08-12T14:11:12.367Z,99205.25
2022-08-12T14:14:04.713Z,99212.22
2022-08-12T14:16:46.720Z,99202.97
2022-08-12T14:19:22.757Z,99196.81
2022-08-12T14:21:59.393Z,99196.88
2022-08-12T14:24:27.368Z,99196.84
2022-08-12T14:27:01.998Z,99181.19
2022-08-12T14:29:38.123Z,99191.09
2022-08-12T14:32:17.920Z,99183.97
2022-08-12T14:34:47.008Z,99176.25
2022-08-12T14:37:57.414Z,99166.31
2022-08-12T14:40:01.110Z,99184.38
2022-08-12T14:42:28.157Z,99187.38
2022-08-12T14:45:01.224Z,99164.88
2022-08-12T14:47:35.292Z,99185.34
2022-08-12T14:50:37.838Z,99172.84
2022-08-12T14:58:32.089Z,99156.50
2022-08-12T15:01:21.380Z,99159.41
2022-08-12T15:03:56.781Z,99172.97
2022-08-12T15:06:43.083Z,99171.34
2022-08-12T15:09:14.014Z,99159.84
2022-08-12T15:11:48.723Z,99169.91
2022-08-12T15:14:22.254Z,99168.13
2022-08-12T15:16:48.820Z,99165.81
2022-08-12T15:20:27.786Z,99163.13
2022-08-12T15:22:38.455Z,99147.34
2022-08-12T15:24:50.207Z,99160.03
2022-08-12T15:27:22.464Z,99168.78
2022-08-12T15:29:58.708Z,99169.63
2022-08-12T15:32:32.228Z,99166.81
2022-08-12T15:35:00.757Z,99167.09
2022-08-12T15:38:08.702Z,99160.56
2022-08-12T15:40:14.442Z,99163.72
2022-08-12T15:42:51.099Z,99157.72
2022-08-12T15:45:23.779Z,99162.31
2022-08-12T15:47:53.534Z,99170.13
2022-08-12T15:50:45.545Z,99158.16
2022-08-12T15:53:15.619Z,99157.31
2022-08-12T15:55:45.733Z,99172.25
2022-08-12T15:58:13.372Z,99159.97
2022-08-12T16:00:43.339Z,99163.53
2022-08-12T16:03:13.643Z,99164.88
2022-08-12T16:06:13.032Z,99166.91
2022-08-12T16:08:36.251Z,99161.53
2022-08-12T16:11:07.383Z,99156.84
2022-08-12T16:13:44.268Z,99155.88
2022-08-12T16:16:22.812Z,99157.25
2022-08-12T16:18:52.670Z,99155.72
2022-08-12T16:21:52.746Z,99159.78
2022-08-12T16:24:11.659Z,99156.03
2022-08-12T16:26:39.419Z,99168.53
2022-08-12T16:29:15.056Z,99158.34
2022-08-12T16:31:43.324Z,99152.75
2022-08-12T16:34:25.499Z,99158.34
2022-08-12T16:37:02.016Z,99152.56
2022-08-12T16:39:32.810Z,99146.16
2022-08-12T16:42:28.326Z,99143.69
2022-08-12T16:45:02.522Z,99156.69
2022-08-12T16:47:57.256Z,99156.03
2022-08-12T16:50:30.933Z,99145.00
2022-08-12T16:53:02.077Z,99151.78
2022-08-12T16:55:42.358Z,99146.31
2022-08-12T16:58:18.581Z,99150.91
2022-08-12T17:00:55.242Z,99112.50
2022-08-12T17:03:29.209Z,99146.31
2022-08-12T17:05:59.221Z,99145.13
2022-08-12T17:08:28.962Z,99144.94
2022-08-12T17:10:56.459Z,99139.69
2022-08-12T17:13:26.220Z,99138.00
2022-08-12T17:16:05.175Z,99145.25
2022-08-12T17:18:42.838Z,99148.78
2022-08-12T17:21:15.250Z,99142.63
2022-08-12T17:23:53.734Z,99147.53
2022-08-12T17:26:28.509Z,99140.28
2022-08-12T17:29:01.656Z,99149.31
2022-08-12T17:31:59.589Z,99145.78
2022-08-12T17:34:38.380Z,99147.53
2022-08-12T17:37:07.989Z,99150.31
2022-08-12T17:40:15.209Z,99152.91
2022-08-12T17:42:32.626Z,99149.47
2022-08-12T17:45:16.947Z,99145.47
2022-08-12T17:48:01.215Z,99159.56
2022-08-12T17:50:31.996Z,99151.91
2022-08-12T17:53:02.487Z,99152.47
2022-08-12T17:55:43.858Z,99155.56
2022-08-12T17:58:17.351Z,99157.69
2022-08-12T18:00:45.901Z,99157.56
2022-08-12T18:04:05.458Z,99160.66
2022-08-12T18:06:13.751Z,99152.50
2022-08-12T18:08:54.946Z,99144.94
2022-08-12T18:12:04.479Z,99142.34
2022-08-12T18:14:30.279Z,99159.06
2022-08-12T18:17:00.357Z,99157.53
2022-08-12T18:19:34.096Z,99153.88
2022-08-12T18:22:22.259Z,99156.47
2022-08-12T18:25:04.773Z,99161.19
2022-08-12T18:27:44.181Z,99169.19
2022-08-12T18:30:21.056Z,99166.59
2022-08-12T18:33:03.492Z,99170.25
2022-08-12T18:35:46.384Z,99173.63
2022-08-12T18:38:20.515Z,99187.47
2022-08-12T18:41:09.764Z,99174.50
2022-08-12T18:43:58.789Z,99176.84
2022-08-12T18:46:48.909Z,99175.88
2022-08-12T18:49:39.178Z,99176.56
2022-08-12T18:52:08.627Z,99176.31
2022-08-12T18:54:48.778Z,99193.13
2022-08-12T18:58:06.405Z,99187.22
2022-08-12T19:00:08.051Z,99183.19
2022-08-12T19:02:39.697Z,99181.97
2022-08-12T19:05:13.277Z,99174.53
2022-08-12T19:07:58.099Z,99188.78
2022-08-12T19:10:28.439Z,99172.94
2022-08-12T19:13:24.051Z,99174.28
2022-08-12T19:15:57.986Z,99186.84
2022-08-12T19:18:30.219Z,99181.97
2022-08-12T19:21:06.517Z,99190.00
2022-08-12T19:23:39.071Z,99174.84
2022-08-12T19:26:10.814Z,99193.47
2022-08-12T19:28:40.020Z,99194.50
2022-08-12T19:31:55.821Z,99200.41
2022-08-12T19:38:04.513Z,99189.50
2022-08-12T19:40:20.577Z,99196.44
2022-08-12T19:43:01.426Z,99195.44
2022-08-12T19:45:41.869Z,99199.75
2022-08-12T19:48:16.907Z,99205.38
2022-08-12T19:50:50.662Z,99208.81
2022-08-12T19:53:22.770Z,99207.75
2022-08-12T19:55:52.918Z,99209.59
2022-08-12T19:58:20.880Z,99212.78
2022-08-12T20:00:53.189Z,99217.16
2022-08-12T20:03:38.348Z,99219.50
2022-08-12T20:06:13.899Z,99213.88
2022-08-12T20:08:47.890Z,99220.41
2022-08-12T20:12:13.334Z,99226.00
2022-08-12T20:14:09.521Z,99226.41
2022-08-12T20:19:52.147Z,99232.22
2022-08-12T20:22:24.704Z,99229.78
2022-08-12T20:25:02.129Z,99233.50
2022-08-12T20:28:05.037Z,99229.00
2022-08-12T20:30:20.786Z,99223.59
2022-08-12T20:33:17.681Z,99243.09
2022-08-12T20:36:12.934Z,99240.25
2022-08-12T20:38:34.546Z,99241.41
2022-08-12T20:41:17.858Z,99236.63
2022-08-12T20:43:50.016Z,99237.38
2022-08-12T20:46:19.164Z,99231.72
2022-08-12T20:48:46.970Z,99227.53
2022-08-12T20:51:21.977Z,99225.19
2022-08-12T20:53:58.639Z,99223.97
2022-08-12T20:56:34.903Z,99233.59
2022-08-12T20:59:09.543Z,99231.50
2022-08-12T21:01:46.926Z,99232.50
2022-08-12T21:04:35.114Z,99230.44
2022-08-12T21:07:04.675Z,99229.06
2022-08-12T21:09:47.567Z,99227.69
2022-08-12T21:12:31.340Z,99225.91
2022-08-12T21:15:16.628Z,99221.44
2022-08-12T21:18:15.500Z,99224.88
2022-08-12T21:20:50.923Z,99234.97
2022-08-12T21:23:21.282Z,99234.88
2022-08-12T21:25:49.123Z,99233.22
2022-08-12T21:28:18.905Z,99230.41
2022-08-12T21:31:10.462Z,99231.03
2022-08-12T21:33:58.446Z,99229.47
2022-08-12T21:36:22.569Z,99232.25
2022-08-12T21:39:01.890Z,99226.16
2022-08-12T21:41:45.841Z,99239.63
2022-08-12T21:44:24.117Z,99228.75
2022-08-12T21:47:20.233Z,99223.13
2022-08-12T21:49:54.666Z,99226.75
2022-08-12T21:52:34.158Z,99228.13
2022-08-12T21:55:02.437Z,99221.75
2022-08-12T21:57:36.543Z,99212.72
2022-08-12T22:00:18.991Z,99217.13
2022-08-12T22:03:05.224Z,99195.34
2022-08-12T22:05:51.652Z,99221.47
2022-08-12T22:08:22.099Z,99210.47
2022-08-12T22:10:52.348Z,99221.75
2022-08-12T22:14:02.614Z,99214.44
2022-08-12T22:16:07.629Z,99203.06
2022-08-12T22:18:35.149Z,99207.94
2022-08-12T22:21:01.571Z,99208.66
2022-08-12T22:23:28.617Z,99194.59
2022-08-12T22:26:28.936Z,99199.28
2022-08-12T22:29:17.226Z,99195.63
2022-08-12T22:31:45.862Z,99194.31
2022-08-12T22:34:18.214Z,99196.69
2022-08-12T22:36:45.735Z,99195.34
2022-08-12T22:39:15.693Z,99188.69
2022-08-12T22:42:02.848Z,99183.47
2022-08-12T22:45:02.164Z,99178.13
2022-08-12T22:47:54.205Z,99165.91
2022-08-12T22:50:27.449Z,99173.63
2022-08-12T22:53:16.413Z,99174.41
2022-08-12T22:56:00.722Z,99169.56
2022-08-12T22:58:34.042Z,99170.94
2022-08-12T23:01:01.796Z,99160.78
2022-08-12T23:03:46.899Z,99152.00
2022-08-12T23:06:16.623Z,99150.81
2022-08-12T23:08:43.495Z,99151.69
2022-08-12T23:11:10.173Z,99152.00
2022-08-12T23:13:47.248Z,99156.03
2022-08-12T23:16:28.362Z,99156.75
2022-08-12T23:19:10.775Z,99147.22
2022-08-12T23:22:05.240Z,99152.09
2022-08-12T23:24:55.599Z,99134.13
2022-08-12T23:27:44.476Z,99143.53
2022-08-12T23:30:25.255Z,99137.88
2022-08-12T23:33:00.716Z,99134.91
2022-08-12T23:35:45.943Z,99125.75
2022-08-12T23:38:30.354Z,99123.25
2022-08-12T23:41:02.311Z,99120.53
2022-08-12T23:43:39.095Z,99119.22
2022-08-12T23:46:19.179Z,99137.25
2022-08-12T23:48:48.172Z,99117.78
2022-08-12T23:51:23.405Z,99118.59
2022-08-12T23:53:59.774Z,99121.19
2022-08-12T23:56:26.762Z,99137.50
2022-08-12T23:58:57.501Z,99131.06
